createdAt,value
2019-03-09T00:00:17.434Z,11.00
2019-03-09T00:02:45.911Z,13.10
2019-03-09T00:05:14.372Z,8.90
2019-03-09T00:07:42.848Z,5.43
2019-03-09T00:10:11.267Z,12.87
2019-03-09T00:12:39.694Z,16.63
2019-03-09T00:15:08.629Z,11.43
2019-03-09T00:17:37.342Z,15.23
2019-03-09T00:20:08.830Z,22.30
2019-03-09T00:22:41.164Z,8.28
2019-03-09T00:25:11.392Z,7.70
2019-03-09T00:27:47.469Z,14.83
2019-03-09T00:30:17.661Z,12.67
2019-03-09T00:32:46.153Z,12.10
2019-03-09T00:35:14.672Z,5.30
2019-03-09T00:37:43.211Z,14.43
2019-03-09T00:40:12.808Z,15.47
2019-03-09T00:42:42.014Z,14.33
2019-03-09T00:45:11.407Z,10.60
2019-03-09T00:47:39.863Z,10.27
2019-03-09T00:50:10.204Z,12.93
2019-03-09T00:52:38.786Z,17.50
2019-03-09T00:55:10.123Z,11.70
2019-03-09T00:57:38.566Z,7.23
2019-03-09T01:00:18.249Z,16.83
2019-03-09T01:02:46.767Z,9.90
2019-03-09T01:05:15.529Z,5.63
2019-03-09T01:07:43.991Z,15.43
2019-03-09T01:10:16.515Z,7.77
2019-03-09T01:12:45.013Z,16.57
2019-03-09T01:15:14.110Z,7.10
2019-03-09T01:17:42.568Z,14.57
2019-03-09T01:20:14.141Z,10.30
2019-03-09T01:22:42.599Z,6.17
2019-03-09T01:25:11.772Z,6.50
2019-03-09T01:27:40.193Z,8.40
2019-03-09T01:30:14.563Z,7.40
2019-03-09T01:32:42.985Z,11.57
2019-03-09T01:35:11.487Z,7.93
2019-03-09T01:37:40.233Z,17.37
2019-03-09T01:40:13.755Z,10.40
2019-03-09T01:42:42.174Z,6.20
2019-03-09T01:45:15.471Z,12.27
2019-03-09T01:47:43.916Z,12.50
2019-03-09T01:50:12.573Z,9.00
2019-03-09T01:52:40.986Z,9.33
2019-03-09T01:55:13.333Z,7.70
2019-03-09T01:57:42.167Z,14.80
2019-03-09T02:00:18.791Z,3.93
2019-03-09T02:02:47.305Z,7.70
2019-03-09T02:05:16.156Z,6.07
2019-03-09T02:07:44.635Z,5.20
2019-03-09T02:10:14.811Z,3.60
2019-03-09T02:12:43.292Z,3.80
2019-03-09T02:15:16.013Z,6.10
2019-03-09T02:17:44.576Z,7.00
2019-03-09T02:20:16.756Z,7.40
2019-03-09T02:22:45.203Z,2.80
2019-03-09T02:25:14.353Z,6.00
2019-03-09T02:27:42.858Z,18.73
2019-03-09T02:30:15.531Z,3.40
2019-03-09T02:32:43.946Z,4.77
2019-03-09T02:35:16.808Z,4.90
2019-03-09T02:37:45.246Z,3.30
2019-03-09T02:40:24.459Z,2.37
2019-03-09T02:42:52.861Z,2.43
2019-03-09T02:45:23.198Z,2.97
2019-03-09T02:47:51.642Z,2.33
2019-03-09T02:50:20.060Z,2.20
2019-03-09T02:52:48.503Z,2.93
2019-03-09T02:55:16.925Z,2.37
2019-03-09T02:57:45.413Z,4.90
2019-03-09T03:00:18.755Z,4.30
2019-03-09T03:02:48.834Z,4.20
2019-03-09T03:05:17.326Z,5.70
2019-03-09T03:07:45.797Z,2.37
2019-03-09T03:10:14.391Z,12.27
2019-03-09T03:12:42.834Z,3.10
2019-03-09T03:15:31.719Z,4.10
2019-03-09T03:18:00.366Z,2.07
2019-03-09T03:20:28.825Z,2.10
2019-03-09T03:22:57.258Z,2.17
2019-03-09T03:25:25.905Z,2.70
2019-03-09T03:27:55.192Z,2.70
2019-03-09T03:30:23.710Z,1.67
2019-03-09T03:32:53.779Z,2.47
2019-03-09T03:35:22.340Z,2.67
2019-03-09T03:37:50.767Z,6.23
2019-03-09T03:40:19.194Z,7.03
2019-03-09T03:42:47.689Z,3.43
2019-03-09T03:45:16.221Z,2.07
2019-03-09T03:47:44.731Z,2.00
2019-03-09T03:50:13.225Z,2.10
2019-03-09T03:52:41.677Z,2.77
2019-03-09T03:55:10.539Z,2.17
2019-03-09T03:57:38.961Z,1.90
2019-03-09T04:00:12.532Z,1.42
2019-03-09T04:02:40.965Z,1.90
2019-03-09T04:05:09.456Z,1.97
2019-03-09T04:07:37.938Z,17.43
2019-03-09T04:10:09.522Z,2.53
2019-03-09T04:12:38.004Z,3.27
2019-03-09T04:15:07.372Z,1.73
2019-03-09T04:17:35.808Z,1.37
2019-03-09T04:20:06.492Z,1.67
2019-03-09T04:22:34.925Z,1.67
2019-03-09T04:25:03.802Z,1.40
2019-03-09T04:27:32.205Z,1.40
2019-03-09T04:30:00.724Z,1.10
2019-03-09T04:32:29.784Z,2.00
2019-03-09T04:34:58.241Z,1.87
2019-03-09T04:37:26.624Z,1.20
2019-03-09T04:39:55.152Z,1.60
2019-03-09T04:42:23.557Z,1.70
2019-03-09T04:44:52.922Z,1.27
2019-03-09T04:47:21.346Z,1.60
2019-03-09T04:49:49.783Z,1.53
2019-03-09T04:52:18.200Z,2.20
2019-03-09T04:54:46.692Z,1.60
2019-03-09T04:57:15.217Z,1.97
2019-03-09T04:59:43.702Z,1.80
2019-03-09T05:02:12.151Z,1.47
2019-03-09T05:04:45.037Z,2.10
2019-03-09T05:07:16.527Z,1.53
2019-03-09T05:10:02.818Z,2.30
2019-03-09T05:12:32.114Z,2.00
2019-03-09T05:15:00.527Z,1.93
2019-03-09T05:17:28.955Z,1.87
2019-03-09T05:19:57.394Z,1.87
2019-03-09T05:22:25.813Z,1.83
2019-03-09T05:24:54.263Z,2.30
2019-03-09T05:27:22.670Z,1.77
2019-03-09T05:29:51.071Z,1.60
2019-03-09T05:32:19.509Z,2.30
2019-03-09T05:34:47.958Z,2.17
2019-03-09T05:37:16.395Z,2.23
2019-03-09T05:39:44.851Z,2.17
2019-03-09T05:42:13.277Z,2.47
2019-03-09T05:44:41.709Z,3.13
2019-03-09T05:47:11.261Z,2.57
2019-03-09T05:49:39.695Z,2.63
2019-03-09T05:52:23.173Z,2.40
2019-03-09T05:54:51.609Z,3.93
2019-03-09T05:57:20.088Z,3.00
2019-03-09T05:59:48.547Z,2.97
2019-03-09T06:02:16.981Z,3.50
2019-03-09T06:04:45.397Z,3.43
2019-03-09T06:07:13.832Z,6.37
2019-03-09T06:09:42.302Z,5.47
2019-03-09T06:12:11.693Z,3.87
2019-03-09T06:14:40.180Z,4.60
2019-03-09T06:17:08.594Z,3.97
2019-03-09T06:19:37.033Z,3.40
2019-03-09T06:22:05.551Z,4.20
2019-03-09T06:24:37.027Z,4.30
2019-03-09T06:27:05.437Z,4.23
2019-03-09T06:29:34.113Z,5.60
2019-03-09T06:32:31.267Z,5.10
2019-03-09T06:34:59.769Z,8.53
2019-03-09T06:37:28.622Z,4.13
2019-03-09T06:39:57.776Z,4.23
2019-03-09T06:42:38.419Z,4.10
2019-03-09T06:45:10.298Z,4.07
2019-03-09T06:47:38.914Z,5.50
2019-03-09T06:50:17.370Z,5.83
2019-03-09T06:52:46.023Z,4.43
2019-03-09T06:55:15.132Z,4.83
2019-03-09T06:57:43.874Z,3.67
2019-03-09T07:00:33.604Z,6.83
2019-03-09T07:03:02.284Z,3.60
2019-03-09T07:05:31.014Z,4.20
2019-03-09T07:07:59.596Z,5.90
2019-03-09T07:10:28.339Z,4.60
2019-03-09T07:12:57.050Z,4.50
2019-03-09T07:15:28.297Z,3.55
2019-03-09T07:17:59.294Z,4.07
2019-03-09T07:20:28.078Z,5.50
2019-03-09T07:22:56.778Z,4.90
2019-03-09T07:25:25.396Z,5.03
2019-03-09T07:28:03.439Z,7.70
2019-03-09T07:30:32.153Z,4.57
2019-03-09T07:33:00.859Z,10.40
2019-03-09T07:35:29.536Z,4.73
2019-03-09T07:37:58.023Z,4.17
2019-03-09T07:40:26.545Z,3.83
2019-03-09T07:42:54.968Z,4.47
2019-03-09T07:45:23.420Z,4.23
2019-03-09T07:47:51.832Z,7.20
2019-03-09T07:50:20.268Z,7.30
2019-03-09T07:52:48.764Z,5.83
2019-03-09T07:55:22.050Z,4.90
2019-03-09T07:57:50.552Z,7.73
2019-03-09T08:00:21.484Z,4.10
2019-03-09T08:02:49.958Z,3.47
2019-03-09T08:05:18.458Z,3.07
2019-03-09T08:07:46.896Z,3.33
2019-03-09T08:10:17.583Z,3.60
2019-03-09T08:12:45.992Z,2.63
2019-03-09T08:15:16.892Z,7.10
2019-03-09T08:17:46.083Z,4.33
2019-03-09T08:20:18.480Z,11.20
2019-03-09T08:22:47.072Z,2.93
2019-03-09T08:25:25.428Z,14.93
2019-03-09T08:27:53.866Z,11.70
2019-03-09T08:30:26.847Z,3.33
2019-03-09T08:32:55.356Z,3.27
2019-03-09T08:35:23.785Z,12.60
2019-03-09T08:37:52.475Z,4.50
2019-03-09T08:40:22.139Z,3.40
2019-03-09T08:42:50.797Z,3.47
2019-03-09T08:45:21.292Z,5.67
2019-03-09T08:47:52.676Z,3.27
2019-03-09T08:50:21.587Z,14.30
2019-03-09T08:52:51.046Z,5.03
2019-03-09T08:55:19.757Z,10.23
2019-03-09T08:57:48.195Z,4.17
2019-03-09T09:00:19.476Z,6.33
2019-03-09T09:02:47.885Z,12.60
2019-03-09T09:05:16.982Z,11.47
2019-03-09T09:07:45.528Z,7.00
2019-03-09T09:10:14.134Z,5.20
2019-03-09T09:12:42.537Z,5.43
2019-03-09T09:15:15.359Z,8.10
2019-03-09T09:17:43.851Z,4.40
2019-03-09T09:20:20.978Z,4.90
2019-03-09T09:22:49.398Z,8.57
2019-03-09T09:25:17.853Z,9.43
2019-03-09T09:27:46.415Z,5.03
2019-03-09T09:30:17.649Z,7.53
2019-03-09T09:32:46.065Z,3.90
2019-03-09T09:35:16.287Z,6.50
2019-03-09T09:37:44.942Z,11.60
2019-03-09T09:40:21.363Z,9.00
2019-03-09T09:42:49.980Z,9.80
2019-03-09T09:45:18.531Z,10.87
2019-03-09T09:47:46.951Z,4.60
2019-03-09T09:50:16.627Z,4.80
2019-03-09T09:52:45.124Z,8.53
2019-03-09T09:55:17.901Z,8.53
2019-03-09T09:57:46.461Z,5.50
2019-03-09T10:00:18.033Z,4.57
2019-03-09T10:02:46.540Z,5.10
2019-03-09T10:05:15.093Z,6.57
2019-03-09T10:07:43.622Z,6.83
2019-03-09T10:10:19.861Z,6.20
2019-03-09T10:12:48.423Z,8.30
2019-03-09T10:15:28.298Z,5.43
2019-03-09T10:17:56.815Z,4.30
2019-03-09T10:20:25.261Z,5.77
2019-03-09T10:23:03.705Z,2.90
2019-03-09T10:25:23.915Z,4.17
2019-03-09T10:27:52.333Z,4.50
2019-03-09T10:30:22.113Z,5.80
2019-03-09T10:32:50.607Z,5.23
2019-03-09T10:35:19.252Z,11.33
2019-03-09T10:37:49.170Z,4.90
2019-03-09T10:40:17.941Z,7.87
2019-03-09T10:42:46.451Z,5.87
2019-03-09T10:45:18.892Z,3.53
2019-03-09T10:47:47.371Z,4.57
2019-03-09T10:50:16.658Z,4.70
2019-03-09T10:52:45.140Z,6.13
2019-03-09T10:55:24.679Z,3.70
2019-03-09T10:57:53.179Z,4.33
2019-03-09T11:00:24.120Z,5.27
2019-03-09T11:02:52.610Z,2.60
2019-03-09T11:05:21.097Z,3.37
2019-03-09T11:07:49.673Z,3.33
2019-03-09T11:10:18.075Z,4.60
2019-03-09T11:12:46.599Z,3.37
2019-03-09T11:15:15.125Z,5.80
2019-03-09T11:17:43.567Z,3.10
2019-03-09T11:20:16.467Z,4.70
2019-03-09T11:22:44.953Z,5.07
2019-03-09T11:25:13.625Z,5.33
2019-03-09T11:27:42.170Z,2.30
2019-03-09T11:30:16.267Z,4.07
2019-03-09T11:32:44.707Z,2.47
2019-03-09T11:35:13.230Z,2.53
2019-03-09T11:37:41.653Z,14.80
2019-03-09T11:40:10.189Z,2.37
2019-03-09T11:42:38.605Z,3.33
2019-03-09T11:45:19.810Z,5.60
2019-03-09T11:47:48.334Z,2.63
2019-03-09T11:50:19.692Z,2.50
2019-03-09T11:52:48.281Z,4.87
2019-03-09T11:55:17.355Z,6.20
2019-03-09T11:57:45.843Z,8.70
2019-03-09T12:00:20.126Z,24.93
2019-03-09T12:02:48.582Z,1.80
2019-03-09T12:05:17.014Z,5.07
2019-03-09T12:07:45.597Z,5.83
2019-03-09T12:10:14.185Z,7.50
2019-03-09T12:12:42.671Z,2.70
2019-03-09T12:15:13.131Z,3.20
2019-03-09T12:17:41.723Z,1.80
2019-03-09T12:20:11.320Z,4.13
2019-03-09T12:22:39.782Z,3.27
2019-03-09T12:25:10.487Z,6.13
2019-03-09T12:27:43.420Z,1.70
2019-03-09T12:30:18.155Z,2.37
2019-03-09T12:32:48.670Z,2.33
2019-03-09T12:35:17.521Z,2.20
2019-03-09T12:37:47.158Z,2.42
2019-03-09T12:40:19.128Z,1.97
2019-03-09T12:42:47.874Z,2.33
2019-03-09T12:45:17.319Z,2.40
2019-03-09T12:47:46.695Z,2.00
2019-03-09T12:50:24.500Z,1.77
2019-03-09T12:52:53.042Z,2.73
2019-03-09T12:55:21.600Z,4.70
2019-03-09T12:57:50.039Z,4.77
2019-03-09T13:00:22.290Z,1.50
2019-03-09T13:02:52.072Z,1.80
2019-03-09T13:05:20.823Z,1.83
2019-03-09T13:07:49.222Z,1.50
2019-03-09T13:10:17.823Z,1.67
2019-03-09T13:12:46.513Z,5.43
2019-03-09T13:15:16.082Z,2.10
2019-03-09T13:17:44.912Z,3.92
2019-03-09T13:20:14.870Z,4.60
2019-03-09T13:22:43.416Z,3.43
2019-03-09T13:25:12.078Z,3.90
2019-03-09T13:27:40.518Z,1.77
2019-03-09T13:30:16.997Z,5.40
2019-03-09T13:32:45.515Z,5.90
2019-03-09T13:35:14.049Z,5.77
2019-03-09T13:37:42.537Z,4.83
2019-03-09T13:40:12.396Z,10.13
2019-03-09T13:42:40.859Z,13.57
2019-03-09T13:45:14.378Z,15.30
2019-03-09T13:47:42.805Z,12.70
2019-03-09T13:50:12.793Z,21.20
2019-03-09T13:52:42.975Z,20.37
2019-03-09T13:55:11.999Z,12.20
2019-03-09T13:57:40.561Z,11.57
2019-03-09T14:00:16.564Z,17.87
2019-03-09T14:02:45.038Z,18.30
2019-03-09T14:05:14.097Z,12.33
2019-03-09T14:07:42.612Z,18.80
2019-03-09T14:10:17.436Z,17.23
2019-03-09T14:12:45.879Z,18.70
2019-03-09T14:15:17.692Z,12.70
2019-03-09T14:17:46.314Z,18.30
2019-03-09T14:20:17.757Z,28.73
2019-03-09T14:22:46.276Z,14.80
2019-03-09T14:25:17.449Z,20.03
2019-03-09T14:27:45.924Z,25.77
2019-03-09T14:30:16.256Z,19.53
2019-03-09T14:32:44.774Z,26.47
2019-03-09T14:35:13.561Z,22.00
2019-03-09T14:37:42.138Z,19.70
2019-03-09T14:40:15.448Z,22.50
2019-03-09T14:42:43.974Z,31.80
2019-03-09T14:45:17.330Z,28.93
2019-03-09T14:47:45.940Z,27.40
2019-03-09T14:50:14.741Z,23.13
2019-03-09T14:52:43.257Z,22.53
2019-03-09T14:55:12.727Z,25.90
2019-03-09T14:57:41.136Z,23.50
2019-03-09T15:00:15.137Z,21.03
2019-03-09T15:02:43.632Z,20.03
2019-03-09T15:05:12.164Z,25.60
2019-03-09T15:07:40.620Z,22.47
2019-03-09T15:10:10.779Z,28.30
2019-03-09T15:12:39.220Z,31.43
2019-03-09T15:15:13.536Z,25.63
2019-03-09T15:17:41.940Z,18.23
2019-03-09T15:20:12.225Z,31.63
2019-03-09T15:22:40.658Z,38.63
2019-03-09T15:25:14.376Z,30.87
2019-03-09T15:27:42.808Z,35.70
2019-03-09T15:30:14.002Z,23.00
2019-03-09T15:32:42.604Z,28.00
2019-03-09T15:35:11.610Z,25.10
2019-03-09T15:37:40.201Z,29.63
2019-03-09T15:40:11.442Z,26.13
2019-03-09T15:42:39.975Z,27.07
2019-03-09T15:45:14.616Z,14.87
2019-03-09T15:47:43.161Z,21.20
2019-03-09T15:50:14.339Z,15.00
2019-03-09T15:52:42.859Z,41.93
2019-03-09T15:55:12.003Z,25.20
2019-03-09T15:57:40.490Z,24.10
2019-03-09T16:00:14.725Z,21.33
2019-03-09T16:02:43.205Z,23.27
2019-03-09T16:05:11.693Z,27.23
2019-03-09T16:07:40.171Z,34.33
2019-03-09T16:10:14.154Z,26.10
2019-03-09T16:12:42.560Z,17.87
2019-03-09T16:15:13.276Z,24.37
2019-03-09T16:17:41.694Z,18.87
2019-03-09T16:20:12.894Z,40.53
2019-03-09T16:22:41.422Z,29.43
2019-03-09T16:25:10.186Z,19.83
2019-03-09T16:27:38.843Z,16.13
2019-03-09T16:30:10.367Z,31.77
2019-03-09T16:32:39.273Z,23.63
2019-03-09T16:35:08.324Z,23.53
2019-03-09T16:37:36.745Z,31.17
2019-03-09T16:40:08.275Z,13.40
2019-03-09T16:42:36.688Z,21.73
2019-03-09T16:45:06.155Z,27.20
2019-03-09T16:47:34.588Z,32.10
2019-03-09T16:50:03.178Z,30.80
2019-03-09T16:52:31.636Z,30.13
2019-03-09T16:55:00.066Z,21.50
2019-03-09T16:57:28.555Z,26.67
2019-03-09T16:59:57.076Z,15.93
2019-03-09T17:02:28.110Z,35.87
2019-03-09T17:04:56.655Z,20.80
2019-03-09T17:07:25.082Z,28.07
2019-03-09T17:09:53.528Z,28.67
2019-03-09T17:12:21.965Z,19.17
2019-03-09T17:14:50.540Z,16.70
2019-03-09T17:17:19.028Z,28.27
2019-03-09T17:19:47.460Z,17.57
2019-03-09T17:22:15.907Z,16.73
2019-03-09T17:24:44.340Z,26.10
2019-03-09T17:27:13.680Z,26.43
2019-03-09T17:29:42.236Z,26.90
2019-03-09T17:32:10.752Z,28.60
2019-03-09T17:34:39.207Z,29.13
2019-03-09T17:37:07.646Z,12.83
2019-03-09T17:39:36.144Z,13.63
2019-03-09T17:42:04.606Z,16.50
2019-03-09T17:44:33.054Z,16.33
2019-03-09T17:47:01.462Z,18.80
2019-03-09T17:49:29.915Z,27.23
2019-03-09T17:51:58.356Z,23.33
2019-03-09T17:54:26.786Z,12.50
2019-03-09T17:56:55.226Z,18.40
2019-03-09T17:59:23.662Z,21.60
2019-03-09T18:01:52.185Z,17.93
2019-03-09T18:04:20.605Z,24.30
2019-03-09T18:06:49.128Z,29.37
2019-03-09T18:09:17.576Z,26.17
2019-03-09T18:11:45.997Z,36.97
2019-03-09T18:14:14.451Z,19.17
2019-03-09T18:16:52.253Z,38.40
2019-03-09T18:19:13.160Z,34.37
2019-03-09T18:21:42.520Z,28.83
2019-03-09T18:24:10.978Z,38.30
2019-03-09T18:26:39.488Z,31.97
2019-03-09T18:29:08.023Z,19.83
2019-03-09T18:31:36.492Z,25.17
2019-03-09T18:34:04.944Z,27.27
2019-03-09T18:36:33.387Z,21.87
2019-03-09T18:39:01.861Z,22.97
2019-03-09T18:41:30.286Z,29.10
2019-03-09T18:43:58.744Z,23.17
2019-03-09T18:46:27.276Z,31.55
2019-03-09T18:48:55.731Z,30.27
2019-03-09T18:51:24.244Z,26.73
2019-03-09T18:53:52.672Z,21.50
2019-03-09T18:56:21.082Z,32.20
2019-03-09T18:58:49.520Z,24.30
2019-03-09T19:01:17.952Z,25.23
2019-03-09T19:03:46.388Z,37.27
2019-03-09T19:06:14.833Z,22.50
2019-03-09T19:08:43.873Z,28.23
2019-03-09T19:11:12.332Z,16.97
2019-03-09T19:13:40.756Z,22.17
2019-03-09T19:16:09.184Z,23.17
2019-03-09T19:18:37.624Z,21.63
2019-03-09T19:21:06.140Z,20.00
2019-03-09T19:23:34.586Z,31.00
2019-03-09T19:26:03.004Z,37.60
2019-03-09T19:28:31.433Z,19.43
2019-03-09T19:30:59.905Z,25.27
2019-03-09T19:33:28.335Z,26.97
2019-03-09T19:35:58.502Z,23.00
2019-03-09T19:38:27.122Z,20.50
2019-03-09T19:40:55.538Z,14.90
2019-03-09T19:43:23.994Z,23.83
2019-03-09T19:45:52.416Z,18.93
2019-03-09T19:48:21.002Z,16.53
2019-03-09T19:50:49.523Z,18.83
2019-03-09T19:53:17.967Z,21.33
2019-03-09T19:55:46.416Z,23.90
2019-03-09T19:58:17.043Z,27.30
2019-03-09T20:00:45.489Z,19.83
2019-03-09T20:03:13.948Z,29.30
2019-03-09T20:05:42.378Z,15.93
2019-03-09T20:08:10.793Z,38.77
2019-03-09T20:10:39.247Z,10.20
2019-03-09T20:13:07.782Z,15.20
2019-03-09T20:15:36.172Z,20.10
2019-03-09T20:18:04.697Z,21.67
2019-03-09T20:20:33.182Z,16.60
2019-03-09T20:23:01.627Z,13.37
2019-03-09T20:25:30.058Z,20.23
2019-03-09T20:27:58.552Z,15.47
2019-03-09T20:30:27.021Z,19.47
2019-03-09T20:32:56.012Z,13.73
2019-03-09T20:35:24.512Z,32.80
2019-03-09T20:37:52.921Z,14.13
2019-03-09T20:40:21.365Z,14.90
2019-03-09T20:42:49.823Z,12.80
2019-03-09T20:45:20.551Z,15.27
2019-03-09T20:47:48.974Z,15.87
2019-03-09T20:50:21.890Z,16.23
2019-03-09T20:52:50.393Z,21.57
2019-03-09T20:55:18.849Z,13.47
2019-03-09T20:57:47.260Z,20.13
2019-03-09T21:00:17.139Z,26.63
2019-03-09T21:02:45.622Z,17.17
2019-03-09T21:05:14.159Z,20.77
2019-03-09T21:07:42.683Z,25.70
2019-03-09T21:10:21.727Z,32.97
2019-03-09T21:12:56.190Z,30.10
2019-03-09T21:15:24.746Z,25.72
2019-03-09T21:17:53.329Z,33.13
2019-03-09T21:20:21.836Z,24.00
2019-03-09T21:22:50.387Z,26.10
2019-03-09T21:25:18.829Z,31.57
2019-03-09T21:27:48.173Z,29.77
2019-03-09T21:30:16.631Z,26.80
2019-03-09T21:32:45.135Z,24.33
2019-03-09T21:35:13.594Z,28.97
2019-03-09T21:37:42.752Z,37.27
2019-03-09T21:40:11.527Z,36.13
2019-03-09T21:42:39.976Z,29.17
2019-03-09T21:45:10.857Z,23.17
2019-03-09T21:47:39.719Z,40.83
2019-03-09T21:50:11.254Z,28.23
2019-03-09T21:52:39.678Z,31.63
2019-03-09T21:55:10.704Z,35.05
2019-03-09T21:57:39.133Z,32.13
2019-03-09T22:00:18.222Z,26.30
2019-03-09T22:02:46.735Z,40.70
2019-03-09T22:05:15.356Z,24.57
2019-03-09T22:07:43.890Z,29.93
2019-03-09T22:10:12.958Z,35.37
2019-03-09T22:12:41.380Z,36.27
2019-03-09T22:15:15.436Z,46.80
2019-03-09T22:17:43.928Z,42.87
2019-03-09T22:20:14.479Z,46.80
2019-03-09T22:22:43.013Z,46.17
2019-03-09T22:25:12.564Z,44.33
2019-03-09T22:27:41.022Z,45.37
2019-03-09T22:30:12.077Z,49.47
2019-03-09T22:32:40.610Z,62.93
2019-03-09T22:35:11.356Z,49.70
2019-03-09T22:37:39.858Z,60.97
2019-03-09T22:40:21.280Z,66.20
2019-03-09T22:42:50.656Z,55.30
2019-03-09T22:45:19.160Z,60.67
2019-03-09T22:47:47.633Z,69.67
2019-03-09T22:50:20.501Z,48.77
2019-03-09T22:52:49.079Z,44.33
2019-03-09T22:55:17.593Z,50.40
2019-03-09T22:57:46.094Z,52.27
2019-03-09T23:00:19.953Z,58.07
2019-03-09T23:02:48.697Z,54.03
2019-03-09T23:05:17.400Z,41.90
2019-03-09T23:07:45.898Z,53.43
2019-03-09T23:10:19.985Z,53.43
2019-03-09T23:12:48.440Z,38.80
2019-03-09T23:15:17.584Z,70.03
2019-03-09T23:17:46.521Z,49.40
2019-03-09T23:20:15.854Z,46.93
2019-03-09T23:22:44.349Z,23.83
2019-03-09T23:25:13.729Z,51.53
2019-03-09T23:27:42.320Z,59.50
2019-03-09T23:30:19.602Z,55.70
2019-03-09T23:32:48.021Z,56.33
2019-03-09T23:35:16.612Z,38.10
2019-03-09T23:37:46.548Z,62.97
2019-03-09T23:40:17.121Z,40.70
2019-03-09T23:42:45.734Z,45.87
2019-03-09T23:45:21.918Z,42.73
2019-03-09T23:47:50.394Z,35.80
2019-03-09T23:50:18.972Z,42.33
2019-03-09T23:52:47.562Z,48.13
2019-03-09T23:55:22.179Z,64.70
2019-03-09T23:57:46.730Z,38.33
